Ventura — ZCDT2 — position and weather

sailwx.info

Track history (hours):
 
Tides and Currents Weather Stations Pressure Air Temp Water Temp Dewpoint Dewpoint Depression Visibility Wind Speed Wind Dir Waves Ship Positions

Ventura

Last reported at 2018-Jul-22 03:01 UTC. Time now 2018-Jul-22 03:20 UTC.
Position N 48°21' W 005°34'.

Length 289 m; draft 8.6 m.

Type: Passenger vessel. MMSI: 310562000.

Date/timePositionNaut miles runAvg speedWind from/ knotsBaromVisibWave heightAir tempDewpointWater temp
2018-Jul-22 03:01N 48°21' W 005°34'918.9
2018-Jul-22 02:31N 48°29' W 005°27'917.0
2018-Jul-22 02:00N 48°35' W 005°18'714.5
2018-Jul-22 01:31N 48°41' W 005°11'714.4
2018-Jul-22 01:01N 48°46' W 005°03'714.0
2018-Jul-22 00:31N 48°49' W 004°54'713.9
2018-Jul-21 23:58N 48°52' W 004°44'613.8
2018-Jul-21 23:30N 48°55' W 004°35'713.7
2018-Jul-21 23:00N 48°58' W 004°26'713.8
2018-Jul-21 22:30N 49°01' W 004°16'714.0
2018-Jul-21 22:00N 49°04' W 004°06'714.4
2018-Jul-21 21:30N 49°07' W 003°56'714.3
2018-Jul-21 21:00N 49°10' W 003°46'814.9
2018-Jul-21 20:28N 49°13' W 003°35'715.4
2018-Jul-21 19:59N 49°16' W 003°25'815.6
2018-Jul-21 19:30N 49°20' W 003°14'815.8
2018-Jul-21 19:00N 49°23' W 003°03'815.5
2018-Jul-21 18:30N 49°23' W 002°52'815.6
2018-Jul-21 18:00N 49°23' W 002°39'713.7
2018-Jul-21 17:30N 49°25' W 002°30'3 5.3
2018-Jul-21 17:00N 49°28' W 002°30'0 0.0
2018-Jul-21 16:29N 49°28' W 002°30'0 0.0
2018-Jul-21 15:59N 49°28' W 002°30'0 0.0
2018-Jul-21 15:29N 49°28' W 002°30'0 0.0
2018-Jul-21 14:53N 49°28' W 002°30'0 0.0
2018-Jul-21 14:20N 49°28' W 002°30'0 0.0
2018-Jul-21 13:26N 49°28' W 002°30'0 0.0
2018-Jul-21 12:53N 49°28' W 002°30'0 0.0
2018-Jul-21 12:26N 49°28' W 002°30'0 0.0
2018-Jul-21 11:59N 49°28' W 002°30'0 0.1
2018-Jul-21 11:29N 49°28' W 002°30'0 0.0
2018-Jul-21 10:56N 49°28' W 002°30'0 0.0
2018-Jul-21 10:02N 49°28' W 002°30'0 0.0
2018-Jul-21 09:47N 49°28' W 002°30'0 0.1
2018-Jul-21 09:11N 49°28' W 002°30'0 0.1
2018-Jul-21 08:44N 49°28' W 002°30'0 0.0
2018-Jul-21 07:53N 49°28' W 002°30'0 0.0
2018-Jul-21 07:26N 49°28' W 002°30'0 0.1
2018-Jul-21 06:59N 49°28' W 002°30'0 0.1
2018-Jul-21 06:30N 49°28' W 002°30'3 6.5
2018-Jul-21 06:00N 49°24' W 002°30'610.0
2018-Jul-21 05:22N 49°21' W 002°38'411.0
2018-Jul-21 05:00N 49°20' W 002°44'510.1
2018-Jul-21 04:29N 49°22' W 002°52'511.1
2018-Jul-21 04:00N 49°27' W 002°55'611.9
2018-Jul-21 03:29N 49°33' W 002°56'712.3
2018-Jul-21 02:57N 49°40' W 002°57'612.4
2018-Jul-21 02:28N 49°45' W 002°59'612.1
2018-Jul-21 02:00N 49°51' W 003°02'510.9
2018-Jul-21 01:31N 49°56' W 002°59'611.8
2018-Jul-21 01:00N 49°58' W 002°50'611.7
2018-Jul-21 00:30N 50°00' W 002°42'712.0
2018-Jul-20 23:54N 50°03' W 002°31'612.3
2018-Jul-20 23:26N 50°05' W 002°23'812.9
2018-Jul-20 22:49N 50°09' W 002°12'413.3
2018-Jul-20 22:30N 50°10' W 002°06'713.8
2018-Jul-20 22:00N 50°14' W 001°57'914.3
2018-Jul-20 21:23N 50°18' W 001°45'614.6
2018-Jul-20 21:00N 50°21' W 001°37'714.8
2018-Jul-20 20:31N 50°24' W 001°27'815.0
2018-Jul-20 19:58N 50°28' W 001°16'715.4
2018-Jul-20 19:31N 50°32' W 001°06'713.6
2018-Jul-20 19:01N 50°37' W 000°59'611.8
2018-Jul-20 18:30N 50°43' W 000°59'713.1
2018-Jul-20 18:00N 50°46' W 001°09'713.2
2018-Jul-20 17:31N 50°47' W 001°19'4 8.6
2018-Jul-20 17:00N 50°51' W 001°21'3 5.7
2018-Jul-20 16:30N 50°54' W 001°24'0 0.1
2018-Jul-20 16:00N 50°54' W 001°24'0 0.0
2018-Jul-20 15:30N 50°54' W 001°24'0 0.0
2018-Jul-20 15:00N 50°54' W 001°24'0 0.0
2018-Jul-20 14:30N 50°54' W 001°24'0 0.0
2018-Jul-20 14:00N 50°54' W 001°24'0 0.0
2018-Jul-20 13:30N 50°54' W 001°24'0 0.0
2018-Jul-20 13:00N 50°54' W 001°24'0 0.0
2018-Jul-20 12:30N 50°54' W 001°24'0 0.0
2018-Jul-20 12:00N 50°54' W 001°24'0 0.0
2018-Jul-20 11:30N 50°54' W 001°24'0 0.0
2018-Jul-20 11:00N 50°54' W 001°24'0 0.0
2018-Jul-20 10:30N 50°54' W 001°24'0 0.0
2018-Jul-20 10:00N 50°54' W 001°24'0 0.0
2018-Jul-20 09:27N 50°54' W 001°24'0 0.0
2018-Jul-20 09:00N 50°54' W 001°24'0 0.0
2018-Jul-20 08:30N 50°54' W 001°24'0 0.0
2018-Jul-20 08:00N 50°54' W 001°24'0 0.0
2018-Jul-20 07:30N 50°54' W 001°24'0 0.0
2018-Jul-20 07:00N 50°54' W 001°24'0 0.0
2018-Jul-20 06:30N 50°54' W 001°24'0 0.0
2018-Jul-20 06:00N 50°54' W 001°24'0 0.0
2018-Jul-20 05:30N 50°54' W 001°24'0 0.8
2018-Jul-20 05:00N 50°53' W 001°24'4 8.4
2018-Jul-20 04:30N 50°50' W 001°19'4 7.9
2018-Jul-20 04:00N 50°47' W 001°17'917.2
2018-Jul-20 03:30N 50°44' W 001°04'611.8
2018-Jul-20 03:01N 50°39' W 000°58'510.7
2018-Jul-20 02:31N 50°34' W 001°00'714.0
2018-Jul-20 02:00N 50°30' W 001°09'714.2
2018-Jul-20 01:31N 50°26' W 001°19'714.6
2018-Jul-20 01:00N 50°25' W 001°30'715.0
2018-Jul-20 00:31N 50°22' W 001°41'815.9
2018-Jul-20 00:00N 50°19' W 001°53'816.9
2018-Jul-19 23:31N 50°16' W 002°05'714.5
2018-Jul-19 23:00N 50°10' W 002°10'815.6
2018-Jul-19 22:30N 50°02' W 002°11'815.5
2018-Jul-19 22:00N 49°58' W 002°21'715.1
2018-Jul-19 21:30N 49°54' W 002°31'612.2
2018-Jul-19 21:00N 49°52' W 002°40'713.5
2018-Jul-19 20:30N 49°49' W 002°50'713.9
2018-Jul-19 20:00N 49°47' W 002°60'713.9
2018-Jul-19 19:30N 49°43' W 003°09'713.9
2018-Jul-19 19:01N 49°39' W 003°18'713.9
2018-Jul-19 18:30N 49°35' W 003°26'713.8
2018-Jul-19 17:57N 49°30' W 003°35'713.9
2018-Jul-19 17:27N 49°26' W 003°44'714.0
2018-Jul-19 16:56N 49°22' W 003°53'3013.8
2018-Jul-19 14:43N 49°03' W 004°30'1013.6
2018-Jul-19 14:01N 48°58' W 004°42'713.5
2018-Jul-19 13:31N 48°53' W 004°50'713.4
2018-Jul-19 13:01N 48°49' W 004°58'713.4
2018-Jul-19 12:31N 48°45' W 005°05'715.0
2018-Jul-19 12:01N 48°39' W 005°13'815.1
2018-Jul-19 11:30N 48°33' W 005°21'815.6
2018-Jul-19 11:00N 48°27' W 005°28'815.7
2018-Jul-19 10:31N 48°21' W 005°34'2716.2
2018-Jul-19 08:49N 47°57' W 005°55'616.5
2018-Jul-19 08:27N 47°52' W 005°59'10416.1
2018-Jul-19 02:00N 46°18' W 007°06'39815.7 350 / 181018.8 5.4 19.011.820.5
2018-Jul-18 00:34N 39°57' W 009°46'115.8
2018-Jul-18 00:31N 39°56' W 009°46'2416.1
2018-Jul-17 23:03N 39°33' W 009°46'716.6
2018-Jul-17 22:36N 39°25' W 009°46'216.2
2018-Jul-17 22:30N 39°24' W 009°46'815.9
2018-Jul-17 21:59N 39°16' W 009°45'815.8
2018-Jul-17 21:30N 39°08' W 009°44'815.6
2018-Jul-17 21:00N 39°00' W 009°44'815.7
2018-Jul-17 20:31N 38°52' W 009°43'815.4
2018-Jul-17 20:00N 38°45' W 009°43'714.8
2018-Jul-17 19:30N 38°38' W 009°40'714.9
2018-Jul-17 19:01N 38°36' W 009°31'714.1
2018-Jul-17 18:31N 38°38' W 009°22'713.4
2018-Jul-17 18:00N 38°41' W 009°15'510.1
2018-Jul-17 17:31N 38°42' W 009°08'1 1.7
2018-Jul-17 17:00N 38°43' W 009°08'0 0.0
2018-Jul-17 16:30N 38°43' W 009°08'0 0.0
2018-Jul-17 16:00N 38°43' W 009°08'0 0.0
2018-Jul-17 15:30N 38°43' W 009°08'0 0.0
2018-Jul-17 15:00N 38°43' W 009°08'0 0.0
2018-Jul-17 14:30N 38°43' W 009°08'0 0.0
2018-Jul-17 14:00N 38°43' W 009°08'0 0.0
2018-Jul-17 13:30N 38°43' W 009°08'0 0.0
2018-Jul-17 13:00N 38°43' W 009°08'0 0.0
2018-Jul-17 12:30N 38°43' W 009°08'0 0.0
2018-Jul-17 12:00N 38°43' W 009°08'0 0.0
2018-Jul-17 11:30N 38°43' W 009°08'0 0.0
2018-Jul-17 11:00N 38°43' W 009°08'0 0.0
2018-Jul-17 10:29N 38°43' W 009°08'0 0.0
2018-Jul-17 09:55N 38°43' W 009°08'0 0.0
2018-Jul-17 09:30N 38°43' W 009°08'0 0.0
2018-Jul-17 09:00N 38°43' W 009°08'0 0.0
2018-Jul-17 08:27N 38°43' W 009°08'0 0.0
2018-Jul-17 08:00N 38°43' W 009°08'0 0.0
2018-Jul-17 07:30N 38°43' W 009°08'0 0.0
2018-Jul-17 06:57N 38°43' W 009°08'0 0.0
2018-Jul-17 06:30N 38°43' W 009°08'2 3.5
2018-Jul-17 06:00N 38°42' W 009°09'611.5
2018-Jul-17 05:30N 38°41' W 009°17'714.3
2018-Jul-17 05:00N 38°36' W 009°24'816.7
2018-Jul-17 04:30N 38°29' W 009°27'918.2
2018-Jul-17 04:00N 38°20' W 009°31'917.9
2018-Jul-17 03:30N 38°11' W 009°34'917.9
2018-Jul-17 03:00N 38°03' W 009°38'1019.0
2018-Jul-17 02:30N 37°54' W 009°42'1020.0
2018-Jul-17 02:00N 37°45' W 009°46'1019.7
2018-Jul-17 01:30N 37°35' W 009°50'1119.3
2018-Jul-17 00:58N 37°25' W 009°54'919.1
2018-Jul-17 00:30N 37°17' W 009°58'1818.0
2018-Jul-16 23:30N 36°60' W 010°05'917.2
2018-Jul-16 22:59N 36°52' W 010°08'817.5
2018-Jul-16 22:30N 36°44' W 010°12'1517.8
2018-Jul-16 21:39N 36°29' W 010°18'1917.4
2018-Jul-16 20:35N 36°12' W 010°25'217.6
2018-Jul-16 20:30N 36°10' W 010°26'41617.3
2018-Jul-15 20:27N 29°35' W 013°02'816.6
2018-Jul-15 19:58N 29°27' W 013°04'1516.6
2018-Jul-15 19:06N 29°14' W 013°10'216.5
2018-Jul-15 19:00N 29°12' W 013°10'815.9
2018-Jul-15 18:30N 29°05' W 013°14'816.0
2018-Jul-15 18:00N 29°01' W 013°22'714.8
2018-Jul-15 17:30N 28°58' W 013°30'2 4.3
2018-Jul-15 17:00N 28°58' W 013°32'0 0.2
2018-Jul-15 16:14N 28°58' W 013°32'0 0.0
2018-Jul-15 15:56N 28°58' W 013°32'0 0.0
2018-Jul-15 15:26N 28°58' W 013°32'0 0.0
2018-Jul-15 14:56N 28°58' W 013°32'0 0.0
2018-Jul-15 14:20N 28°58' W 013°32'0 0.0
2018-Jul-15 13:56N 28°58' W 013°32'0 0.0
2018-Jul-15 13:26N 28°58' W 013°32'0 0.0
2018-Jul-15 12:56N 28°58' W 013°32'0 0.0
2018-Jul-15 12:26N 28°58' W 013°32'0 0.0
2018-Jul-15 11:50N 28°58' W 013°32'0 0.0
2018-Jul-15 07:27N 28°58' W 013°32'1 2.6
2018-Jul-15 06:59N 28°57' W 013°32'4 8.2
2018-Jul-15 06:30N 28°54' W 013°35'5 9.8
2018-Jul-15 06:00N 28°51' W 013°39'5 9.9
2018-Jul-15 05:30N 28°48' W 013°44'5 9.6
2018-Jul-15 05:00N 28°48' W 013°50'5 9.4
2018-Jul-15 04:26N 28°48' W 013°56'6 9.7
2018-Jul-15 03:49N 28°48' W 014°03'3 9.8
2018-Jul-15 03:29N 28°48' W 014°07'7 9.6
2018-Jul-15 02:46N 28°48' W 014°14'3 9.3
2018-Jul-15 02:30N 28°47' W 014°17'5 9.3
2018-Jul-15 01:56N 28°47' W 014°23'4 9.0
2018-Jul-15 01:29N 28°46' W 014°28'6 8.9
2018-Jul-15 00:50N 28°46' W 014°34'3 9.1
2018-Jul-15 00:30N 28°45' W 014°38'4 8.6
2018-Jul-15 00:00N 28°44' W 014°42'4 9.0
2018-Jul-14 23:30N 28°39' W 014°44'5 9.1
2018-Jul-14 23:00N 28°35' W 014°45'5 9.2
2018-Jul-14 22:30N 28°31' W 014°46'5 9.2
2018-Jul-14 22:00N 28°26' W 014°48'5 9.1
2018-Jul-14 21:30N 28°22' W 014°49'4 8.8
2018-Jul-14 21:00N 28°18' W 014°51'5 9.0
2018-Jul-14 20:30N 28°13' W 014°52'5 9.3
2018-Jul-14 20:00N 28°10' W 014°56'510.3
2018-Jul-14 19:30N 28°09' W 015°02'5 9.5
2018-Jul-14 19:00N 28°08' W 015°07'5 9.0
2018-Jul-14 18:30N 28°07' W 015°12'5 9.4
2018-Jul-14 18:00N 28°05' W 015°17'5 9.3
2018-Jul-14 17:30N 28°06' W 015°22'3 6.6
2018-Jul-14 17:00N 28°08' W 015°25'0 0.5
2018-Jul-14 16:23N 28°08' W 015°25'0 0.0
2018-Jul-14 15:53N 28°08' W 015°25'0 0.0
2018-Jul-14 15:26N 28°08' W 015°25'0 0.0
2018-Jul-14 14:53N 28°08' W 015°25'0 0.0
2018-Jul-14 13:56N 28°08' W 015°25'0 0.0
2018-Jul-14 13:26N 28°08' W 015°25'0 0.0
2018-Jul-14 12:53N 28°08' W 015°25'0 0.0
2018-Jul-14 12:29N 28°08' W 015°25'0 0.0
2018-Jul-14 11:59N 28°08' W 015°25'0 0.0
2018-Jul-14 11:29N 28°08' W 015°25'0 0.0
2018-Jul-14 10:59N 28°08' W 015°25'0 0.0
2018-Jul-14 10:29N 28°08' W 015°25'0 0.0
2018-Jul-14 09:59N 28°08' W 015°25'0 0.0
2018-Jul-14 09:29N 28°08' W 015°25'0 0.0
2018-Jul-14 08:59N 28°08' W 015°25'0 0.0
2018-Jul-14 08:29N 28°08' W 015°25'0 0.0
2018-Jul-14 07:59N 28°08' W 015°25'0 0.0
2018-Jul-14 07:29N 28°08' W 015°25'0 0.0
2018-Jul-14 06:59N 28°08' W 015°25'0 0.0
2018-Jul-14 06:29N 28°08' W 015°25'1 1.5
2018-Jul-14 06:01N 28°08' W 015°25'3 6.6
2018-Jul-14 05:30N 28°07' W 015°22'4 7.7
2018-Jul-14 05:00N 28°07' W 015°17'3 6.0
2018-Jul-14 04:30N 28°06' W 015°14'4 8.9
2018-Jul-14 04:00N 28°11' W 015°14'4 8.6
2018-Jul-14 03:30N 28°15' W 015°14'4 8.1
2018-Jul-14 03:00N 28°19' W 015°13'4 8.1
2018-Jul-14 02:30N 28°23' W 015°12'4 8.1
2018-Jul-14 02:00N 28°26' W 015°15'4 8.2
2018-Jul-14 01:30N 28°30' W 015°18'4 8.2
2018-Jul-14 01:00N 28°33' W 015°21'4 8.2
2018-Jul-14 00:30N 28°35' W 015°25'4 7.9
2018-Jul-13 23:59N 28°36' W 015°29'4 8.2
2018-Jul-13 23:30N 28°37' W 015°34'4 7.8
2018-Jul-13 23:00N 28°36' W 015°38'4 7.4
2018-Jul-13 22:30N 28°34' W 015°41'4 7.5
2018-Jul-13 21:59N 28°31' W 015°44'4 7.4
2018-Jul-13 21:30N 28°28' W 015°47'4 7.4
2018-Jul-13 21:00N 28°25' W 015°49'4 7.0
2018-Jul-13 20:30N 28°23' W 015°52'3 6.8
2018-Jul-13 20:00N 28°21' W 015°56'3 6.7
2018-Jul-13 19:30N 28°20' W 015°59'4 8.1
2018-Jul-13 19:00N 28°23' W 016°03'4 8.6
2018-Jul-13 18:30N 28°25' W 016°07'4 8.4
2018-Jul-13 18:01N 28°27' W 016°11'3 6.0
2018-Jul-13 17:30N 28°29' W 016°14'0 0.1
2018-Jul-13 16:59N 28°29' W 016°14'0 0.0
2018-Jul-13 16:29N 28°29' W 016°14'0 0.0
2018-Jul-13 15:59N 28°29' W 016°14'0 0.0
2018-Jul-13 15:29N 28°29' W 016°14'0 0.0
2018-Jul-13 14:59N 28°29' W 016°14'0 0.0
2018-Jul-13 14:29N 28°29' W 016°14'0 0.0
2018-Jul-13 13:29N 28°29' W 016°14'0 0.0
2018-Jul-13 12:59N 28°29' W 016°14'0 0.0
2018-Jul-13 12:29N 28°29' W 016°14'0 0.0
2018-Jul-13 11:59N 28°29' W 016°14'0 0.0
2018-Jul-13 11:29N 28°29' W 016°14'0 0.0
2018-Jul-13 10:53N 28°29' W 016°14'0 0.0
2018-Jul-13 10:29N 28°29' W 016°14'0 0.0
2018-Jul-13 09:59N 28°29' W 016°14'0 0.0
2018-Jul-13 09:29N 28°29' W 016°14'0 0.0
2018-Jul-13 08:59N 28°29' W 016°14'0 0.0
2018-Jul-13 08:29N 28°29' W 016°14'0 0.0
2018-Jul-13 07:59N 28°29' W 016°14'0 0.6
2018-Jul-13 07:30N 28°29' W 016°14'1 1.2
2018-Jul-13 07:00N 28°28' W 016°14'3 6.3
2018-Jul-13 06:30N 28°28' W 016°10'815.3
2018-Jul-13 06:01N 28°33' W 016°03'917.2
2018-Jul-13 05:31N 28°41' W 016°05'917.3
2018-Jul-13 04:58N 28°50' W 016°07'3318.4
2018-Jul-13 03:09N 29°23' W 016°15'518.5
2018-Jul-13 02:51N 29°29' W 016°16'  
Track history (hours):
 
Tides and Currents Weather Stations Pressure Air Temp Water Temp Dewpoint Dewpoint Depression Visibility Wind Speed Wind Dir Waves Ship Positions

Ventura

Last reported at 2018-Jul-22 03:01 UTC. Time now 2018-Jul-22 03:20 UTC.
Position N 48°21' W 005°34'.

Length 289 m; draft 8.6 m.

Type: Passenger vessel. MMSI: 310562000.

Date/timePositionNaut miles runAvg speedWind from/ knotsBaromVisibWave heightAir tempDewpointWater temp
2018-Jul-22 03:01N 48°21' W 005°34'918.9
2018-Jul-22 02:31N 48°29' W 005°27'917.0
2018-Jul-22 02:00N 48°35' W 005°18'714.5
2018-Jul-22 01:31N 48°41' W 005°11'714.4
2018-Jul-22 01:01N 48°46' W 005°03'714.0
2018-Jul-22 00:31N 48°49' W 004°54'713.9
2018-Jul-21 23:58N 48°52' W 004°44'613.8
2018-Jul-21 23:30N 48°55' W 004°35'713.7
2018-Jul-21 23:00N 48°58' W 004°26'713.8
2018-Jul-21 22:30N 49°01' W 004°16'714.0
2018-Jul-21 22:00N 49°04' W 004°06'714.4
2018-Jul-21 21:30N 49°07' W 003°56'714.3
2018-Jul-21 21:00N 49°10' W 003°46'814.9
2018-Jul-21 20:28N 49°13' W 003°35'715.4
2018-Jul-21 19:59N 49°16' W 003°25'815.6
2018-Jul-21 19:30N 49°20' W 003°14'815.8
2018-Jul-21 19:00N 49°23' W 003°03'815.5
2018-Jul-21 18:30N 49°23' W 002°52'815.6
2018-Jul-21 18:00N 49°23' W 002°39'713.7
2018-Jul-21 17:30N 49°25' W 002°30'3 5.3
2018-Jul-21 17:00N 49°28' W 002°30'0 0.0
2018-Jul-21 16:29N 49°28' W 002°30'0 0.0
2018-Jul-21 15:59N 49°28' W 002°30'0 0.0
2018-Jul-21 15:29N 49°28' W 002°30'0 0.0
2018-Jul-21 14:53N 49°28' W 002°30'0 0.0
2018-Jul-21 14:20N 49°28' W 002°30'0 0.0
2018-Jul-21 13:26N 49°28' W 002°30'0 0.0
2018-Jul-21 12:53N 49°28' W 002°30'0 0.0
2018-Jul-21 12:26N 49°28' W 002°30'0 0.0
2018-Jul-21 11:59N 49°28' W 002°30'0 0.1
2018-Jul-21 11:29N 49°28' W 002°30'0 0.0
2018-Jul-21 10:56N 49°28' W 002°30'0 0.0
2018-Jul-21 10:02N 49°28' W 002°30'0 0.0
2018-Jul-21 09:47N 49°28' W 002°30'0 0.1
2018-Jul-21 09:11N 49°28' W 002°30'0 0.1
2018-Jul-21 08:44N 49°28' W 002°30'0 0.0
2018-Jul-21 07:53N 49°28' W 002°30'0 0.0
2018-Jul-21 07:26N 49°28' W 002°30'0 0.1
2018-Jul-21 06:59N 49°28' W 002°30'0 0.1
2018-Jul-21 06:30N 49°28' W 002°30'3 6.5
2018-Jul-21 06:00N 49°24' W 002°30'610.0
2018-Jul-21 05:22N 49°21' W 002°38'411.0
2018-Jul-21 05:00N 49°20' W 002°44'510.1
2018-Jul-21 04:29N 49°22' W 002°52'511.1
2018-Jul-21 04:00N 49°27' W 002°55'611.9
2018-Jul-21 03:29N 49°33' W 002°56'712.3
2018-Jul-21 02:57N 49°40' W 002°57'612.4
2018-Jul-21 02:28N 49°45' W 002°59'612.1
2018-Jul-21 02:00N 49°51' W 003°02'510.9
2018-Jul-21 01:31N 49°56' W 002°59'611.8
2018-Jul-21 01:00N 49°58' W 002°50'611.7
2018-Jul-21 00:30N 50°00' W 002°42'712.0
2018-Jul-20 23:54N 50°03' W 002°31'612.3
2018-Jul-20 23:26N 50°05' W 002°23'812.9
2018-Jul-20 22:49N 50°09' W 002°12'413.3
2018-Jul-20 22:30N 50°10' W 002°06'713.8
2018-Jul-20 22:00N 50°14' W 001°57'914.3
2018-Jul-20 21:23N 50°18' W 001°45'614.6
2018-Jul-20 21:00N 50°21' W 001°37'714.8
2018-Jul-20 20:31N 50°24' W 001°27'815.0
2018-Jul-20 19:58N 50°28' W 001°16'715.4
2018-Jul-20 19:31N 50°32' W 001°06'713.6
2018-Jul-20 19:01N 50°37' W 000°59'611.8
2018-Jul-20 18:30N 50°43' W 000°59'713.1
2018-Jul-20 18:00N 50°46' W 001°09'713.2
2018-Jul-20 17:31N 50°47' W 001°19'4 8.6
2018-Jul-20 17:00N 50°51' W 001°21'3 5.7
2018-Jul-20 16:30N 50°54' W 001°24'0 0.1
2018-Jul-20 16:00N 50°54' W 001°24'0 0.0
2018-Jul-20 15:30N 50°54' W 001°24'0 0.0
2018-Jul-20 15:00N 50°54' W 001°24'0 0.0
2018-Jul-20 14:30N 50°54' W 001°24'0 0.0
2018-Jul-20 14:00N 50°54' W 001°24'0 0.0
2018-Jul-20 13:30N 50°54' W 001°24'0 0.0
2018-Jul-20 13:00N 50°54' W 001°24'0 0.0
2018-Jul-20 12:30N 50°54' W 001°24'0 0.0
2018-Jul-20 12:00N 50°54' W 001°24'0 0.0
2018-Jul-20 11:30N 50°54' W 001°24'0 0.0
2018-Jul-20 11:00N 50°54' W 001°24'0 0.0
2018-Jul-20 10:30N 50°54' W 001°24'0 0.0
2018-Jul-20 10:00N 50°54' W 001°24'0 0.0
2018-Jul-20 09:27N 50°54' W 001°24'0 0.0
2018-Jul-20 09:00N 50°54' W 001°24'0 0.0
2018-Jul-20 08:30N 50°54' W 001°24'0 0.0
2018-Jul-20 08:00N 50°54' W 001°24'0 0.0
2018-Jul-20 07:30N 50°54' W 001°24'0 0.0
2018-Jul-20 07:00N 50°54' W 001°24'0 0.0
2018-Jul-20 06:30N 50°54' W 001°24'0 0.0
2018-Jul-20 06:00N 50°54' W 001°24'0 0.0
2018-Jul-20 05:30N 50°54' W 001°24'0 0.8
2018-Jul-20 05:00N 50°53' W 001°24'4 8.4
2018-Jul-20 04:30N 50°50' W 001°19'4 7.9
2018-Jul-20 04:00N 50°47' W 001°17'917.2
2018-Jul-20 03:30N 50°44' W 001°04'611.8
2018-Jul-20 03:01N 50°39' W 000°58'510.7
2018-Jul-20 02:31N 50°34' W 001°00'714.0
2018-Jul-20 02:00N 50°30' W 001°09'714.2
2018-Jul-20 01:31N 50°26' W 001°19'714.6
2018-Jul-20 01:00N 50°25' W 001°30'715.0
2018-Jul-20 00:31N 50°22' W 001°41'815.9
2018-Jul-20 00:00N 50°19' W 001°53'816.9
2018-Jul-19 23:31N 50°16' W 002°05'714.5
2018-Jul-19 23:00N 50°10' W 002°10'815.6
2018-Jul-19 22:30N 50°02' W 002°11'815.5
2018-Jul-19 22:00N 49°58' W 002°21'715.1
2018-Jul-19 21:30N 49°54' W 002°31'612.2
2018-Jul-19 21:00N 49°52' W 002°40'713.5
2018-Jul-19 20:30N 49°49' W 002°50'713.9
2018-Jul-19 20:00N 49°47' W 002°60'713.9
2018-Jul-19 19:30N 49°43' W 003°09'713.9
2018-Jul-19 19:01N 49°39' W 003°18'713.9
2018-Jul-19 18:30N 49°35' W 003°26'713.8
2018-Jul-19 17:57N 49°30' W 003°35'713.9
2018-Jul-19 17:27N 49°26' W 003°44'714.0
2018-Jul-19 16:56N 49°22' W 003°53'3013.8
2018-Jul-19 14:43N 49°03' W 004°30'1013.6
2018-Jul-19 14:01N 48°58' W 004°42'713.5
2018-Jul-19 13:31N 48°53' W 004°50'713.4
2018-Jul-19 13:01N 48°49' W 004°58'713.4
2018-Jul-19 12:31N 48°45' W 005°05'715.0
2018-Jul-19 12:01N 48°39' W 005°13'815.1
2018-Jul-19 11:30N 48°33' W 005°21'815.6
2018-Jul-19 11:00N 48°27' W 005°28'815.7
2018-Jul-19 10:31N 48°21' W 005°34'2716.2
2018-Jul-19 08:49N 47°57' W 005°55'616.5
2018-Jul-19 08:27N 47°52' W 005°59'10416.1
2018-Jul-19 02:00N 46°18' W 007°06'39815.7 350 / 181018.8 5.4 19.011.820.5
2018-Jul-18 00:34N 39°57' W 009°46'115.8
2018-Jul-18 00:31N 39°56' W 009°46'2416.1
2018-Jul-17 23:03N 39°33' W 009°46'716.6
2018-Jul-17 22:36N 39°25' W 009°46'216.2
2018-Jul-17 22:30N 39°24' W 009°46'815.9
2018-Jul-17 21:59N 39°16' W 009°45'815.8
2018-Jul-17 21:30N 39°08' W 009°44'815.6
2018-Jul-17 21:00N 39°00' W 009°44'815.7
2018-Jul-17 20:31N 38°52' W 009°43'815.4
2018-Jul-17 20:00N 38°45' W 009°43'714.8
2018-Jul-17 19:30N 38°38' W 009°40'714.9
2018-Jul-17 19:01N 38°36' W 009°31'714.1
2018-Jul-17 18:31N 38°38' W 009°22'713.4
2018-Jul-17 18:00N 38°41' W 009°15'510.1
2018-Jul-17 17:31N 38°42' W 009°08'1 1.7
2018-Jul-17 17:00N 38°43' W 009°08'0 0.0
2018-Jul-17 16:30N 38°43' W 009°08'0 0.0
2018-Jul-17 16:00N 38°43' W 009°08'0 0.0
2018-Jul-17 15:30N 38°43' W 009°08'0 0.0
2018-Jul-17 15:00N 38°43' W 009°08'0 0.0
2018-Jul-17 14:30N 38°43' W 009°08'0 0.0
2018-Jul-17 14:00N 38°43' W 009°08'0 0.0
2018-Jul-17 13:30N 38°43' W 009°08'0 0.0
2018-Jul-17 13:00N 38°43' W 009°08'0 0.0
2018-Jul-17 12:30N 38°43' W 009°08'0 0.0
2018-Jul-17 12:00N 38°43' W 009°08'0 0.0
2018-Jul-17 11:30N 38°43' W 009°08'0 0.0
2018-Jul-17 11:00N 38°43' W 009°08'0 0.0
2018-Jul-17 10:29N 38°43' W 009°08'0 0.0
2018-Jul-17 09:55N 38°43' W 009°08'0 0.0
2018-Jul-17 09:30N 38°43' W 009°08'0 0.0
2018-Jul-17 09:00N 38°43' W 009°08'0 0.0
2018-Jul-17 08:27N 38°43' W 009°08'0 0.0
2018-Jul-17 08:00N 38°43' W 009°08'0 0.0
2018-Jul-17 07:30N 38°43' W 009°08'0 0.0
2018-Jul-17 06:57N 38°43' W 009°08'0 0.0
2018-Jul-17 06:30N 38°43' W 009°08'2 3.5
2018-Jul-17 06:00N 38°42' W 009°09'611.5
2018-Jul-17 05:30N 38°41' W 009°17'714.3
2018-Jul-17 05:00N 38°36' W 009°24'816.7
2018-Jul-17 04:30N 38°29' W 009°27'918.2
2018-Jul-17 04:00N 38°20' W 009°31'917.9
2018-Jul-17 03:30N 38°11' W 009°34'917.9
2018-Jul-17 03:00N 38°03' W 009°38'1019.0
2018-Jul-17 02:30N 37°54' W 009°42'1020.0
2018-Jul-17 02:00N 37°45' W 009°46'1019.7
2018-Jul-17 01:30N 37°35' W 009°50'1119.3
2018-Jul-17 00:58N 37°25' W 009°54'919.1
2018-Jul-17 00:30N 37°17' W 009°58'1818.0
2018-Jul-16 23:30N 36°60' W 010°05'917.2
2018-Jul-16 22:59N 36°52' W 010°08'817.5
2018-Jul-16 22:30N 36°44' W 010°12'1517.8
2018-Jul-16 21:39N 36°29' W 010°18'1917.4
2018-Jul-16 20:35N 36°12' W 010°25'217.6
2018-Jul-16 20:30N 36°10' W 010°26'41617.3
2018-Jul-15 20:27N 29°35' W 013°02'816.6
2018-Jul-15 19:58N 29°27' W 013°04'1516.6
2018-Jul-15 19:06N 29°14' W 013°10'216.5
2018-Jul-15 19:00N 29°12' W 013°10'815.9
2018-Jul-15 18:30N 29°05' W 013°14'816.0
2018-Jul-15 18:00N 29°01' W 013°22'714.8
2018-Jul-15 17:30N 28°58' W 013°30'2 4.3
2018-Jul-15 17:00N 28°58' W 013°32'0 0.2
2018-Jul-15 16:14N 28°58' W 013°32'0 0.0
2018-Jul-15 15:56N 28°58' W 013°32'0 0.0
2018-Jul-15 15:26N 28°58' W 013°32'0 0.0
2018-Jul-15 14:56N 28°58' W 013°32'0 0.0
2018-Jul-15 14:20N 28°58' W 013°32'0 0.0
2018-Jul-15 13:56N 28°58' W 013°32'0 0.0
2018-Jul-15 13:26N 28°58' W 013°32'0 0.0
2018-Jul-15 12:56N 28°58' W 013°32'0 0.0
2018-Jul-15 12:26N 28°58' W 013°32'0 0.0
2018-Jul-15 11:50N 28°58' W 013°32'0 0.0
2018-Jul-15 07:27N 28°58' W 013°32'1 2.6
2018-Jul-15 06:59N 28°57' W 013°32'4 8.2
2018-Jul-15 06:30N 28°54' W 013°35'5 9.8
2018-Jul-15 06:00N 28°51' W 013°39'5 9.9
2018-Jul-15 05:30N 28°48' W 013°44'5 9.6
2018-Jul-15 05:00N 28°48' W 013°50'5 9.4
2018-Jul-15 04:26N 28°48' W 013°56'6 9.7
2018-Jul-15 03:49N 28°48' W 014°03'3 9.8
2018-Jul-15 03:29N 28°48' W 014°07'7 9.6
2018-Jul-15 02:46N 28°48' W 014°14'3 9.3
2018-Jul-15 02:30N 28°47' W 014°17'5 9.3
2018-Jul-15 01:56N 28°47' W 014°23'4 9.0
2018-Jul-15 01:29N 28°46' W 014°28'6 8.9
2018-Jul-15 00:50N 28°46' W 014°34'3 9.1
2018-Jul-15 00:30N 28°45' W 014°38'4 8.6
2018-Jul-15 00:00N 28°44' W 014°42'4 9.0
2018-Jul-14 23:30N 28°39' W 014°44'5 9.1
2018-Jul-14 23:00N 28°35' W 014°45'5 9.2
2018-Jul-14 22:30N 28°31' W 014°46'5 9.2
2018-Jul-14 22:00N 28°26' W 014°48'5 9.1
2018-Jul-14 21:30N 28°22' W 014°49'4 8.8
2018-Jul-14 21:00N 28°18' W 014°51'5 9.0
2018-Jul-14 20:30N 28°13' W 014°52'5 9.3
2018-Jul-14 20:00N 28°10' W 014°56'510.3
2018-Jul-14 19:30N 28°09' W 015°02'5 9.5
2018-Jul-14 19:00N 28°08' W 015°07'5 9.0
2018-Jul-14 18:30N 28°07' W 015°12'5 9.4
2018-Jul-14 18:00N 28°05' W 015°17'5 9.3
2018-Jul-14 17:30N 28°06' W 015°22'3 6.6
2018-Jul-14 17:00N 28°08' W 015°25'0 0.5
2018-Jul-14 16:23N 28°08' W 015°25'0 0.0
2018-Jul-14 15:53N 28°08' W 015°25'0 0.0
2018-Jul-14 15:26N 28°08' W 015°25'0 0.0
2018-Jul-14 14:53N 28°08' W 015°25'0 0.0
2018-Jul-14 13:56N 28°08' W 015°25'0 0.0
2018-Jul-14 13:26N 28°08' W 015°25'0 0.0
2018-Jul-14 12:53N 28°08' W 015°25'0 0.0
2018-Jul-14 12:29N 28°08' W 015°25'0 0.0
2018-Jul-14 11:59N 28°08' W 015°25'0 0.0
2018-Jul-14 11:29N 28°08' W 015°25'0 0.0
2018-Jul-14 10:59N 28°08' W 015°25'0 0.0
2018-Jul-14 10:29N 28°08' W 015°25'0 0.0
2018-Jul-14 09:59N 28°08' W 015°25'0 0.0
2018-Jul-14 09:29N 28°08' W 015°25'0 0.0
2018-Jul-14 08:59N 28°08' W 015°25'0 0.0
2018-Jul-14 08:29N 28°08' W 015°25'0 0.0
2018-Jul-14 07:59N 28°08' W 015°25'0 0.0
2018-Jul-14 07:29N 28°08' W 015°25'0 0.0
2018-Jul-14 06:59N 28°08' W 015°25'0 0.0
2018-Jul-14 06:29N 28°08' W 015°25'1 1.5
2018-Jul-14 06:01N 28°08' W 015°25'3 6.6
2018-Jul-14 05:30N 28°07' W 015°22'4 7.7
2018-Jul-14 05:00N 28°07' W 015°17'3 6.0
2018-Jul-14 04:30N 28°06' W 015°14'4 8.9
2018-Jul-14 04:00N 28°11' W 015°14'4 8.6
2018-Jul-14 03:30N 28°15' W 015°14'4 8.1
2018-Jul-14 03:00N 28°19' W 015°13'4 8.1
2018-Jul-14 02:30N 28°23' W 015°12'4 8.1
2018-Jul-14 02:00N 28°26' W 015°15'4 8.2
2018-Jul-14 01:30N 28°30' W 015°18'4 8.2
2018-Jul-14 01:00N 28°33' W 015°21'4 8.2
2018-Jul-14 00:30N 28°35' W 015°25'4 7.9
2018-Jul-13 23:59N 28°36' W 015°29'4 8.2
2018-Jul-13 23:30N 28°37' W 015°34'4 7.8
2018-Jul-13 23:00N 28°36' W 015°38'4 7.4
2018-Jul-13 22:30N 28°34' W 015°41'4 7.5
2018-Jul-13 21:59N 28°31' W 015°44'4 7.4
2018-Jul-13 21:30N 28°28' W 015°47'4 7.4
2018-Jul-13 21:00N 28°25' W 015°49'4 7.0
2018-Jul-13 20:30N 28°23' W 015°52'3 6.8
2018-Jul-13 20:00N 28°21' W 015°56'3 6.7
2018-Jul-13 19:30N 28°20' W 015°59'4 8.1
2018-Jul-13 19:00N 28°23' W 016°03'4 8.6
2018-Jul-13 18:30N 28°25' W 016°07'4 8.4
2018-Jul-13 18:01N 28°27' W 016°11'3 6.0
2018-Jul-13 17:30N 28°29' W 016°14'0 0.1
2018-Jul-13 16:59N 28°29' W 016°14'0 0.0
2018-Jul-13 16:29N 28°29' W 016°14'0 0.0
2018-Jul-13 15:59N 28°29' W 016°14'0 0.0
2018-Jul-13 15:29N 28°29' W 016°14'0 0.0
2018-Jul-13 14:59N 28°29' W 016°14'0 0.0
2018-Jul-13 14:29N 28°29' W 016°14'0 0.0
2018-Jul-13 13:29N 28°29' W 016°14'0 0.0
2018-Jul-13 12:59N 28°29' W 016°14'0 0.0
2018-Jul-13 12:29N 28°29' W 016°14'0 0.0
2018-Jul-13 11:59N 28°29' W 016°14'0 0.0
2018-Jul-13 11:29N 28°29' W 016°14'0 0.0
2018-Jul-13 10:53N 28°29' W 016°14'0 0.0
2018-Jul-13 10:29N 28°29' W 016°14'0 0.0
2018-Jul-13 09:59N 28°29' W 016°14'0 0.0
2018-Jul-13 09:29N 28°29' W 016°14'0 0.0
2018-Jul-13 08:59N 28°29' W 016°14'0 0.0
2018-Jul-13 08:29N 28°29' W 016°14'0 0.0
2018-Jul-13 07:59N 28°29' W 016°14'0 0.6
2018-Jul-13 07:30N 28°29' W 016°14'1 1.2
2018-Jul-13 07:00N 28°28' W 016°14'3 6.3
2018-Jul-13 06:30N 28°28' W 016°10'815.3
2018-Jul-13 06:01N 28°33' W 016°03'917.2
2018-Jul-13 05:31N 28°41' W 016°05'917.3
2018-Jul-13 04:58N 28°50' W 016°07'3318.4
2018-Jul-13 03:09N 29°23' W 016°15'518.5
2018-Jul-13 02:51N 29°29' W 016°16'  

Dump ship's entire track history